sensor_id;sensor_type;location;lat;lon;timestamp;temperature;humidity
21261;DHT22;10788;47.930;9.766;2024-03-02T00:02:12;4.70;99.90
21261;DHT22;10788;47.930;9.766;2024-03-02T00:04:38;4.70;99.90
21261;DHT22;10788;47.930;9.766;2024-03-02T00:07:04;4.70;99.90
21261;DHT22;10788;47.930;9.766;2024-03-02T00:09:30;4.60;99.90
21261;DHT22;10788;47.930;9.766;2024-03-02T00:11:56;4.60;99.90
21261;DHT22;10788;47.930;9.766;2024-03-02T00:14:22;4.60;99.90
21261;DHT22;10788;47.930;9.766;2024-03-02T00:16:50;4.60;99.90
21261;DHT22;10788;47.930;9.766;2024-03-02T00:19:17;4.60;99.90
21261;DHT22;10788;47.930;9.766;2024-03-02T00:21:44;4.60;99.90
21261;DHT22;10788;47.930;9.766;2024-03-02T00:24:34;4.60;99.90
21261;DHT22;10788;47.930;9.766;2024-03-02T00:27:04;4.60;99.90
21261;DHT22;10788;47.930;9.766;2024-03-02T00:29:30;4.60;99.90
21261;DHT22;10788;47.930;9.766;2024-03-02T00:31:57;4.60;99.90
21261;DHT22;10788;47.930;9.766;2024-03-02T00:34:23;4.60;99.90
21261;DHT22;10788;47.930;9.766;2024-03-02T00:36:49;4.60;99.90
21261;DHT22;10788;47.930;9.766;2024-03-02T00:39:15;4.60;99.90
21261;DHT22;10788;47.930;9.766;2024-03-02T00:41:42;4.60;99.90
21261;DHT22;10788;47.930;9.766;2024-03-02T00:44:11;4.60;99.90
21261;DHT22;10788;47.930;9.766;2024-03-02T00:46:41;4.60;99.90
21261;DHT22;10788;47.930;9.766;2024-03-02T00:51:48;4.40;99.90
21261;DHT22;10788;47.930;9.766;2024-03-02T00:54:15;4.40;99.90
21261;DHT22;10788;47.930;9.766;2024-03-02T00:56:41;4.30;99.90
21261;DHT22;10788;47.930;9.766;2024-03-02T00:59:07;4.30;99.90
21261;DHT22;10788;47.930;9.766;2024-03-02T01:01:34;4.20;99.90
21261;DHT22;10788;47.930;9.766;2024-03-02T01:04:00;4.20;99.90
21261;DHT22;10788;47.930;9.766;2024-03-02T01:06:26;4.20;99.90
21261;DHT22;10788;47.930;9.766;2024-03-02T01:08:52;4.10;99.90
21261;DHT22;10788;47.930;9.766;2024-03-02T01:11:18;4.10;99.90
21261;DHT22;10788;47.930;9.766;2024-03-02T01:13:44;4.10;99.90
21261;DHT22;10788;47.930;9.766;2024-03-02T01:16:10;4.10;99.90
21261;DHT22;10788;47.930;9.766;2024-03-02T01:18:36;4.10;99.90
21261;DHT22;10788;47.930;9.766;2024-03-02T01:21:01;4.10;99.90
21261;DHT22;10788;47.930;9.766;2024-03-02T01:23:27;4.10;99.90
21261;DHT22;10788;47.930;9.766;2024-03-02T01:25:53;4.20;99.90
21261;DHT22;10788;47.930;9.766;2024-03-02T01:28:19;4.20;99.90
21261;DHT22;10788;47.930;9.766;2024-03-02T01:30:46;4.20;99.90
21261;DHT22;10788;47.930;9.766;2024-03-02T01:33:12;4.20;99.90
21261;DHT22;10788;47.930;9.766;2024-03-02T01:35:38;4.20;99.90
21261;DHT22;10788;47.930;9.766;2024-03-02T01:38:04;4.20;99.90
21261;DHT22;10788;47.930;9.766;2024-03-02T01:40:34;4.20;99.90
21261;DHT22;10788;47.930;9.766;2024-03-02T01:43:00;4.20;99.90
21261;DHT22;10788;47.930;9.766;2024-03-02T01:45:25;4.20;99.90
21261;DHT22;10788;47.930;9.766;2024-03-02T01:47:52;4.20;99.90
21261;DHT22;10788;47.930;9.766;2024-03-02T01:50:25;4.20;99.90
21261;DHT22;10788;47.930;9.766;2024-03-02T01:52:51;4.10;99.90
21261;DHT22;10788;47.930;9.766;2024-03-02T01:55:17;4.10;99.90
21261;DHT22;10788;47.930;9.766;2024-03-02T01:57:43;4.10;99.90
21261;DHT22;10788;47.930;9.766;2024-03-02T02:00:10;4.00;99.90
21261;DHT22;10788;47.930;9.766;2024-03-02T02:02:36;4.00;99.90
21261;DHT22;10788;47.930;9.766;2024-03-02T02:05:02;3.90;99.90
21261;DHT22;10788;47.930;9.766;2024-03-02T02:07:28;3.90;99.90
21261;DHT22;10788;47.930;9.766;2024-03-02T02:09:54;3.90;99.90
21261;DHT22;10788;47.930;9.766;2024-03-02T02:12:20;3.80;99.90
21261;DHT22;10788;47.930;9.766;2024-03-02T02:14:49;3.80;99.90
21261;DHT22;10788;47.930;9.766;2024-03-02T02:17:16;3.90;99.90
21261;DHT22;10788;47.930;9.766;2024-03-02T02:19:42;3.90;99.90
21261;DHT22;10788;47.930;9.766;2024-03-02T02:22:09;3.90;99.90
21261;DHT22;10788;47.930;9.766;2024-03-02T02:24:34;3.80;99.90
21261;DHT22;10788;47.930;9.766;2024-03-02T02:27:00;3.80;99.90
21261;DHT22;10788;47.930;9.766;2024-03-02T02:29:26;3.90;99.90
21261;DHT22;10788;47.930;9.766;2024-03-02T02:31:52;3.90;99.90
21261;DHT22;10788;47.930;9.766;2024-03-02T02:34:18;3.90;99.90
21261;DHT22;10788;47.930;9.766;2024-03-02T02:36:43;3.90;99.90
21261;DHT22;10788;47.930;9.766;2024-03-02T02:39:13;3.90;99.90
21261;DHT22;10788;47.930;9.766;2024-03-02T02:41:41;3.90;99.90
21261;DHT22;10788;47.930;9.766;2024-03-02T02:44:06;3.90;99.90
21261;DHT22;10788;47.930;9.766;2024-03-02T02:46:32;3.90;99.90
21261;DHT22;10788;47.930;9.766;2024-03-02T02:48:58;3.90;99.90
21261;DHT22;10788;47.930;9.766;2024-03-02T02:51:24;3.90;99.90
21261;DHT22;10788;47.930;9.766;2024-03-02T02:53:51;3.90;99.90
21261;DHT22;10788;47.930;9.766;2024-03-02T02:56:16;3.90;99.90
21261;DHT22;10788;47.930;9.766;2024-03-02T02:58:42;3.90;99.90
21261;DHT22;10788;47.930;9.766;2024-03-02T03:01:08;3.90;99.90
21261;DHT22;10788;47.930;9.766;2024-03-02T03:03:34;3.90;99.90
21261;DHT22;10788;47.930;9.766;2024-03-02T03:06:00;3.90;99.90
21261;DHT22;10788;47.930;9.766;2024-03-02T03:08:25;3.90;99.90
21261;DHT22;10788;47.930;9.766;2024-03-02T03:10:51;3.90;99.90
21261;DHT22;10788;47.930;9.766;2024-03-02T03:13:17;3.90;99.90
21261;DHT22;10788;47.930;9.766;2024-03-02T03:15:42;3.90;99.90
21261;DHT22;10788;47.930;9.766;2024-03-02T03:18:08;3.90;99.90
21261;DHT22;10788;47.930;9.766;2024-03-02T03:20:36;3.90;99.90
21261;DHT22;10788;47.930;9.766;2024-03-02T03:23:02;3.80;99.90
21261;DHT22;10788;47.930;9.766;2024-03-02T03:25:29;3.80;99.90
21261;DHT22;10788;47.930;9.766;2024-03-02T03:27:55;3.70;99.90
21261;DHT22;10788;47.930;9.766;2024-03-02T03:30:21;3.70;99.90
21261;DHT22;10788;47.930;9.766;2024-03-02T03:32:47;3.70;99.90
21261;DHT22;10788;47.930;9.766;2024-03-02T03:35:14;3.70;99.90
21261;DHT22;10788;47.930;9.766;2024-03-02T03:37:41;3.70;99.90
21261;DHT22;10788;47.930;9.766;2024-03-02T03:40:07;3.60;99.90
21261;DHT22;10788;47.930;9.766;2024-03-02T03:42:38;3.60;99.90
21261;DHT22;10788;47.930;9.766;2024-03-02T03:45:05;3.60;99.90
21261;DHT22;10788;47.930;9.766;2024-03-02T03:47:32;3.50;99.90
21261;DHT22;10788;47.930;9.766;2024-03-02T03:49:57;3.50;99.90
21261;DHT22;10788;47.930;9.766;2024-03-02T03:52:23;3.40;99.90
21261;DHT22;10788;47.930;9.766;2024-03-02T03:54:49;3.40;99.90
21261;DHT22;10788;47.930;9.766;2024-03-02T03:57:15;3.40;99.90
21261;DHT22;10788;47.930;9.766;2024-03-02T03:59:41;3.40;99.90
21261;DHT22;10788;47.930;9.766;2024-03-02T04:02:08;3.40;99.90
21261;DHT22;10788;47.930;9.766;2024-03-02T04:04:33;3.40;99.90
21261;DHT22;10788;47.930;9.766;2024-03-02T04:06:59;3.50;99.90
21261;DHT22;10788;47.930;9.766;2024-03-02T04:09:25;3.50;99.90
21261;DHT22;10788;47.930;9.766;2024-03-02T04:11:51;3.60;99.90
21261;DHT22;10788;47.930;9.766;2024-03-02T04:14:17;3.70;99.90
21261;DHT22;10788;47.930;9.766;2024-03-02T04:16:42;3.70;99.90
21261;DHT22;10788;47.930;9.766;2024-03-02T04:19:08;3.80;99.90
21261;DHT22;10788;47.930;9.766;2024-03-02T04:21:34;3.90;99.90
21261;DHT22;10788;47.930;9.766;2024-03-02T04:23:59;3.90;99.90
21261;DHT22;10788;47.930;9.766;2024-03-02T04:26:26;3.80;99.90
21261;DHT22;10788;47.930;9.766;2024-03-02T04:28:52;3.80;99.90
21261;DHT22;10788;47.930;9.766;2024-03-02T04:31:18;3.70;99.90
21261;DHT22;10788;47.930;9.766;2024-03-02T04:33:44;3.70;99.90
21261;DHT22;10788;47.930;9.766;2024-03-02T04:36:09;3.70;99.90
21261;DHT22;10788;47.930;9.766;2024-03-02T04:38:36;3.70;99.90
21261;DHT22;10788;47.930;9.766;2024-03-02T04:41:01;3.70;99.90
21261;DHT22;10788;47.930;9.766;2024-03-02T04:43:27;3.70;99.90
21261;DHT22;10788;47.930;9.766;2024-03-02T04:45:53;3.70;99.90
21261;DHT22;10788;47.930;9.766;2024-03-02T04:48:18;3.70;99.90
21261;DHT22;10788;47.930;9.766;2024-03-02T04:50:45;3.70;99.90
21261;DHT22;10788;47.930;9.766;2024-03-02T04:53:10;3.70;99.90
21261;DHT22;10788;47.930;9.766;2024-03-02T04:55:36;3.80;99.90
21261;DHT22;10788;47.930;9.766;2024-03-02T04:58:04;3.80;99.90
21261;DHT22;10788;47.930;9.766;2024-03-02T05:00:30;3.80;99.90
21261;DHT22;10788;47.930;9.766;2024-03-02T05:02:56;3.80;99.90
21261;DHT22;10788;47.930;9.766;2024-03-02T05:05:22;3.80;99.90
21261;DHT22;10788;47.930;9.766;2024-03-02T05:07:47;3.70;99.90
21261;DHT22;10788;47.930;9.766;2024-03-02T05:10:13;3.70;99.90
21261;DHT22;10788;47.930;9.766;2024-03-02T05:12:39;3.70;99.90
21261;DHT22;10788;47.930;9.766;2024-03-02T05:15:12;3.70;99.90
21261;DHT22;10788;47.930;9.766;2024-03-02T05:17:39;3.70;99.90
21261;DHT22;10788;47.930;9.766;2024-03-02T05:20:06;3.60;99.90
21261;DHT22;10788;47.930;9.766;2024-03-02T05:22:33;3.60;99.90
21261;DHT22;10788;47.930;9.766;2024-03-02T05:25:00;3.60;99.90
21261;DHT22;10788;47.930;9.766;2024-03-02T05:27:26;3.60;99.90
21261;DHT22;10788;47.930;9.766;2024-03-02T05:29:52;3.60;99.90
21261;DHT22;10788;47.930;9.766;2024-03-02T05:32:18;3.50;99.90
21261;DHT22;10788;47.930;9.766;2024-03-02T05:34:44;3.50;99.90
21261;DHT22;10788;47.930;9.766;2024-03-02T05:37:09;3.60;99.90
21261;DHT22;10788;47.930;9.766;2024-03-02T05:39:35;3.60;99.90
21261;DHT22;10788;47.930;9.766;2024-03-02T05:42:00;3.60;99.90
21261;DHT22;10788;47.930;9.766;2024-03-02T05:44:26;3.60;99.90
21261;DHT22;10788;47.930;9.766;2024-03-02T05:46:52;3.60;99.90
21261;DHT22;10788;47.930;9.766;2024-03-02T05:49:18;3.60;99.90
21261;DHT22;10788;47.930;9.766;2024-03-02T05:51:43;3.60;99.90
21261;DHT22;10788;47.930;9.766;2024-03-02T05:54:09;3.60;99.90
21261;DHT22;10788;47.930;9.766;2024-03-02T05:56:35;3.60;99.90
21261;DHT22;10788;47.930;9.766;2024-03-02T05:59:01;3.60;99.90
21261;DHT22;10788;47.930;9.766;2024-03-02T06:01:48;3.70;99.90
21261;DHT22;10788;47.930;9.766;2024-03-02T06:04:16;3.70;99.90
21261;DHT22;10788;47.930;9.766;2024-03-02T06:06:42;3.70;99.90
21261;DHT22;10788;47.930;9.766;2024-03-02T06:09:08;3.70;99.90
21261;DHT22;10788;47.930;9.766;2024-03-02T06:11:38;3.60;99.90
21261;DHT22;10788;47.930;9.766;2024-03-02T06:14:04;3.70;99.90
21261;DHT22;10788;47.930;9.766;2024-03-02T06:16:30;3.70;99.90
21261;DHT22;10788;47.930;9.766;2024-03-02T06:18:56;3.80;99.90
21261;DHT22;10788;47.930;9.766;2024-03-02T06:21:26;3.80;99.90
21261;DHT22;10788;47.930;9.766;2024-03-02T06:23:52;3.80;99.90
21261;DHT22;10788;47.930;9.766;2024-03-02T06:26:19;3.80;99.90
21261;DHT22;10788;47.930;9.766;2024-03-02T06:28:45;3.80;99.90
21261;DHT22;10788;47.930;9.766;2024-03-02T06:31:11;3.80;99.90
21261;DHT22;10788;47.930;9.766;2024-03-02T06:33:37;3.80;99.90
21261;DHT22;10788;47.930;9.766;2024-03-02T06:36:03;3.80;99.90
21261;DHT22;10788;47.930;9.766;2024-03-02T06:38:29;3.80;99.90
21261;DHT22;10788;47.930;9.766;2024-03-02T06:40:57;3.80;99.90
21261;DHT22;10788;47.930;9.766;2024-03-02T06:43:23;3.80;99.90
21261;DHT22;10788;47.930;9.766;2024-03-02T06:45:49;3.80;99.90
21261;DHT22;10788;47.930;9.766;2024-03-02T06:48:16;3.90;99.90
21261;DHT22;10788;47.930;9.766;2024-03-02T06:50:46;3.90;99.90
21261;DHT22;10788;47.930;9.766;2024-03-02T06:53:13;4.00;99.90
21261;DHT22;10788;47.930;9.766;2024-03-02T06:55:38;4.00;99.90
21261;DHT22;10788;47.930;9.766;2024-03-02T06:58:04;4.10;99.90
21261;DHT22;10788;47.930;9.766;2024-03-02T07:00:30;4.00;99.90
21261;DHT22;10788;47.930;9.766;2024-03-02T07:02:56;4.00;99.90
21261;DHT22;10788;47.930;9.766;2024-03-02T07:05:21;4.10;99.90
21261;DHT22;10788;47.930;9.766;2024-03-02T07:07:47;4.10;99.90
21261;DHT22;10788;47.930;9.766;2024-03-02T07:10:13;4.20;99.90
21261;DHT22;10788;47.930;9.766;2024-03-02T07:12:38;4.20;99.90
21261;DHT22;10788;47.930;9.766;2024-03-02T07:15:04;4.20;99.90
21261;DHT22;10788;47.930;9.766;2024-03-02T07:17:31;4.30;99.90
21261;DHT22;10788;47.930;9.766;2024-03-02T07:19:57;4.30;99.90
21261;DHT22;10788;47.930;9.766;2024-03-02T07:22:23;4.40;99.90
21261;DHT22;10788;47.930;9.766;2024-03-02T07:24:49;4.40;99.90
21261;DHT22;10788;47.930;9.766;2024-03-02T07:27:15;4.40;99.90
21261;DHT22;10788;47.930;9.766;2024-03-02T07:29:41;4.40;99.90
21261;DHT22;10788;47.930;9.766;2024-03-02T07:32:08;4.40;99.90
21261;DHT22;10788;47.930;9.766;2024-03-02T07:34:34;4.40;99.90
21261;DHT22;10788;47.930;9.766;2024-03-02T07:37:00;4.50;99.90
21261;DHT22;10788;47.930;9.766;2024-03-02T07:39:26;4.50;99.90
21261;DHT22;10788;47.930;9.766;2024-03-02T07:41:52;4.50;99.90
21261;DHT22;10788;47.930;9.766;2024-03-02T07:44:18;4.60;99.90
21261;DHT22;10788;47.930;9.766;2024-03-02T07:46:48;4.60;99.90
21261;DHT22;10788;47.930;9.766;2024-03-02T07:49:18;4.60;99.90
21261;DHT22;10788;47.930;9.766;2024-03-02T07:51:44;4.60;99.90
21261;DHT22;10788;47.930;9.766;2024-03-02T07:54:10;4.70;99.90
21261;DHT22;10788;47.930;9.766;2024-03-02T07:56:36;4.70;99.90
21261;DHT22;10788;47.930;9.766;2024-03-02T07:59:02;4.80;99.90
21261;DHT22;10788;47.930;9.766;2024-03-02T08:01:32;4.90;99.90
21261;DHT22;10788;47.930;9.766;2024-03-02T08:04:01;4.90;99.90
21261;DHT22;10788;47.930;9.766;2024-03-02T08:06:29;5.00;99.90
21261;DHT22;10788;47.930;9.766;2024-03-02T08:08:56;5.00;99.90
21261;DHT22;10788;47.930;9.766;2024-03-02T08:11:22;5.10;99.90
21261;DHT22;10788;47.930;9.766;2024-03-02T08:13:48;5.20;99.90
21261;DHT22;10788;47.930;9.766;2024-03-02T08:16:17;5.20;99.90
21261;DHT22;10788;47.930;9.766;2024-03-02T08:18:47;5.30;99.90
21261;DHT22;10788;47.930;9.766;2024-03-02T08:21:13;5.40;99.90
21261;DHT22;10788;47.930;9.766;2024-03-02T08:23:40;5.40;99.90
21261;DHT22;10788;47.930;9.766;2024-03-02T08:26:07;5.50;99.90
21261;DHT22;10788;47.930;9.766;2024-03-02T08:28:33;5.50;99.90
21261;DHT22;10788;47.930;9.766;2024-03-02T08:30:59;5.60;99.90
21261;DHT22;10788;47.930;9.766;2024-03-02T08:33:25;5.70;99.90
21261;DHT22;10788;47.930;9.766;2024-03-02T08:35:51;5.80;99.90
21261;DHT22;10788;47.930;9.766;2024-03-02T08:38:17;5.90;99.90
21261;DHT22;10788;47.930;9.766;2024-03-02T08:40:43;6.10;99.90
21261;DHT22;10788;47.930;9.766;2024-03-02T08:43:09;6.20;99.90
21261;DHT22;10788;47.930;9.766;2024-03-02T08:45:35;6.30;99.90
21261;DHT22;10788;47.930;9.766;2024-03-02T08:48:01;6.40;99.90
21261;DHT22;10788;47.930;9.766;2024-03-02T08:50:26;6.50;99.90
21261;DHT22;10788;47.930;9.766;2024-03-02T08:52:52;6.70;99.90
21261;DHT22;10788;47.930;9.766;2024-03-02T08:55:18;6.80;99.90
21261;DHT22;10788;47.930;9.766;2024-03-02T08:57:44;6.90;99.90
21261;DHT22;10788;47.930;9.766;2024-03-02T09:00:10;7.00;99.90
21261;DHT22;10788;47.930;9.766;2024-03-02T09:02:36;7.10;99.90
21261;DHT22;10788;47.930;9.766;2024-03-02T09:05:02;7.20;99.90
21261;DHT22;10788;47.930;9.766;2024-03-02T09:07:27;7.30;99.90
21261;DHT22;10788;47.930;9.766;2024-03-02T09:09:53;7.40;99.90
21261;DHT22;10788;47.930;9.766;2024-03-02T09:12:19;7.40;99.90
21261;DHT22;10788;47.930;9.766;2024-03-02T09:14:45;7.40;99.90
21261;DHT22;10788;47.930;9.766;2024-03-02T09:17:12;7.60;99.90
21261;DHT22;10788;47.930;9.766;2024-03-02T09:19:38;7.70;99.90
21261;DHT22;10788;47.930;9.766;2024-03-02T09:22:04;7.80;99.90
21261;DHT22;10788;47.930;9.766;2024-03-02T09:24:31;8.00;99.90
21261;DHT22;10788;47.930;9.766;2024-03-02T09:26:58;8.10;99.90
21261;DHT22;10788;47.930;9.766;2024-03-02T09:29:24;8.20;99.90
21261;DHT22;10788;47.930;9.766;2024-03-02T09:31:50;8.30;99.90
21261;DHT22;10788;47.930;9.766;2024-03-02T09:34:16;8.40;99.90
21261;DHT22;10788;47.930;9.766;2024-03-02T09:36:43;8.40;99.90
21261;DHT22;10788;47.930;9.766;2024-03-02T09:39:09;8.50;99.90
21261;DHT22;10788;47.930;9.766;2024-03-02T09:41:37;8.60;99.90
21261;DHT22;10788;47.930;9.766;2024-03-02T09:44:04;8.80;99.90
21261;DHT22;10788;47.930;9.766;2024-03-02T09:46:31;9.00;99.90
21261;DHT22;10788;47.930;9.766;2024-03-02T09:48:57;9.20;99.90
21261;DHT22;10788;47.930;9.766;2024-03-02T09:51:23;9.40;99.90
21261;DHT22;10788;47.930;9.766;2024-03-02T09:53:50;9.70;99.90
21261;DHT22;10788;47.930;9.766;2024-03-02T09:56:16;10.00;99.90
21261;DHT22;10788;47.930;9.766;2024-03-02T09:58:42;10.40;99.90
21261;DHT22;10788;47.930;9.766;2024-03-02T10:01:09;10.70;99.90
21261;DHT22;10788;47.930;9.766;2024-03-02T10:03:36;10.90;99.90
21261;DHT22;10788;47.930;9.766;2024-03-02T10:06:25;11.10;99.90
21261;DHT22;10788;47.930;9.766;2024-03-02T10:08:51;11.40;99.90
21261;DHT22;10788;47.930;9.766;2024-03-02T10:11:32;11.60;99.90
21261;DHT22;10788;47.930;9.766;2024-03-02T10:14:12;11.80;99.90
21261;DHT22;10788;47.930;9.766;2024-03-02T10:16:40;12.10;99.90
21261;DHT22;10788;47.930;9.766;2024-03-02T10:19:23;12.30;99.90
21261;DHT22;10788;47.930;9.766;2024-03-02T10:21:53;12.40;99.90
21261;DHT22;10788;47.930;9.766;2024-03-02T10:24:20;12.40;99.90
21261;DHT22;10788;47.930;9.766;2024-03-02T10:26:46;12.50;99.90
21261;DHT22;10788;47.930;9.766;2024-03-02T10:29:13;12.60;99.90
21261;DHT22;10788;47.930;9.766;2024-03-02T10:31:40;12.40;99.90
21261;DHT22;10788;47.930;9.766;2024-03-02T10:34:07;12.60;99.90
21261;DHT22;10788;47.930;9.766;2024-03-02T10:36:34;12.50;99.90
21261;DHT22;10788;47.930;9.766;2024-03-02T10:39:03;12.60;99.90
21261;DHT22;10788;47.930;9.766;2024-03-02T10:41:33;12.50;99.90
21261;DHT22;10788;47.930;9.766;2024-03-02T10:44:08;12.60;99.90
21261;DHT22;10788;47.930;9.766;2024-03-02T10:46:38;12.70;99.90
21261;DHT22;10788;47.930;9.766;2024-03-02T10:49:05;12.60;99.90
21261;DHT22;10788;47.930;9.766;2024-03-02T10:51:32;12.60;99.90
21261;DHT22;10788;47.930;9.766;2024-03-02T10:53:59;12.70;99.90
21261;DHT22;10788;47.930;9.766;2024-03-02T10:56:47;12.60;99.90
21261;DHT22;10788;47.930;9.766;2024-03-02T11:01:43;12.80;99.90
21261;DHT22;10788;47.930;9.766;2024-03-02T11:04:09;12.90;99.90
21261;DHT22;10788;47.930;9.766;2024-03-02T11:06:36;12.80;99.90
21261;DHT22;10788;47.930;9.766;2024-03-02T11:09:07;12.90;99.90
21261;DHT22;10788;47.930;9.766;2024-03-02T11:11:39;12.80;99.90
21261;DHT22;10788;47.930;9.766;2024-03-02T11:14:07;13.00;99.90
21261;DHT22;10788;47.930;9.766;2024-03-02T11:16:38;13.10;99.90
21261;DHT22;10788;47.930;9.766;2024-03-02T11:19:13;13.10;99.90
21261;DHT22;10788;47.930;9.766;2024-03-02T11:21:39;13.10;99.90
21261;DHT22;10788;47.930;9.766;2024-03-02T11:26:50;13.00;99.90
21261;DHT22;10788;47.930;9.766;2024-03-02T11:32:21;13.00;99.90
21261;DHT22;10788;47.930;9.766;2024-03-02T11:34:49;13.10;99.90
21261;DHT22;10788;47.930;9.766;2024-03-02T11:37:16;13.00;99.90
21261;DHT22;10788;47.930;9.766;2024-03-02T11:39:44;12.80;99.90
21261;DHT22;10788;47.930;9.766;2024-03-02T11:42:11;12.90;99.90
21261;DHT22;10788;47.930;9.766;2024-03-02T11:44:41;12.90;99.90
21261;DHT22;10788;47.930;9.766;2024-03-02T11:47:10;12.90;99.90
21261;DHT22;10788;47.930;9.766;2024-03-02T11:52:06;12.80;99.90
21261;DHT22;10788;47.930;9.766;2024-03-02T11:54:37;12.70;99.90
21261;DHT22;10788;47.930;9.766;2024-03-02T11:57:06;12.80;99.90
21261;DHT22;10788;47.930;9.766;2024-03-02T11:59:32;12.90;99.90
21261;DHT22;10788;47.930;9.766;2024-03-02T12:02:01;12.90;99.90
21261;DHT22;10788;47.930;9.766;2024-03-02T12:04:29;12.90;99.90
21261;DHT22;10788;47.930;9.766;2024-03-02T12:06:56;13.00;99.90
21261;DHT22;10788;47.930;9.766;2024-03-02T12:09:25;13.00;99.90
21261;DHT22;10788;47.930;9.766;2024-03-02T12:12:10;13.00;99.90
21261;DHT22;10788;47.930;9.766;2024-03-02T12:14:38;13.00;99.90
21261;DHT22;10788;47.930;9.766;2024-03-02T12:17:07;12.90;99.90
21261;DHT22;10788;47.930;9.766;2024-03-02T12:19:33;12.90;99.90
21261;DHT22;10788;47.930;9.766;2024-03-02T12:21:59;12.90;99.90
21261;DHT22;10788;47.930;9.766;2024-03-02T12:24:30;12.90;99.90
21261;DHT22;10788;47.930;9.766;2024-03-02T12:26:56;12.80;99.90
21261;DHT22;10788;47.930;9.766;2024-03-02T12:29:23;12.50;99.90
21261;DHT22;10788;47.930;9.766;2024-03-02T12:31:50;12.50;99.90
21261;DHT22;10788;47.930;9.766;2024-03-02T12:34:17;12.60;99.90
21261;DHT22;10788;47.930;9.766;2024-03-02T12:36:44;12.50;99.90
21261;DHT22;10788;47.930;9.766;2024-03-02T12:39:13;12.50;99.90
21261;DHT22;10788;47.930;9.766;2024-03-02T12:41:39;12.50;99.90
21261;DHT22;10788;47.930;9.766;2024-03-02T12:44:05;12.40;99.90
21261;DHT22;10788;47.930;9.766;2024-03-02T12:46:32;12.50;99.90
21261;DHT22;10788;47.930;9.766;2024-03-02T12:48:58;12.50;99.90
21261;DHT22;10788;47.930;9.766;2024-03-02T12:51:30;12.50;99.90
21261;DHT22;10788;47.930;9.766;2024-03-02T12:53:57;12.60;99.90
21261;DHT22;10788;47.930;9.766;2024-03-02T12:56:24;12.60;99.90
21261;DHT22;10788;47.930;9.766;2024-03-02T12:58:54;12.60;99.90
21261;DHT22;10788;47.930;9.766;2024-03-02T13:01:20;12.60;99.90
21261;DHT22;10788;47.930;9.766;2024-03-02T13:03:48;12.70;99.90
21261;DHT22;10788;47.930;9.766;2024-03-02T13:06:16;12.70;99.90
21261;DHT22;10788;47.930;9.766;2024-03-02T13:08:42;12.70;99.90
21261;DHT22;10788;47.930;9.766;2024-03-02T13:11:08;12.60;99.90
21261;DHT22;10788;47.930;9.766;2024-03-02T13:13:35;12.70;99.90
21261;DHT22;10788;47.930;9.766;2024-03-02T13:16:00;12.80;99.90
21261;DHT22;10788;47.930;9.766;2024-03-02T13:18:28;12.90;99.90
21261;DHT22;10788;47.930;9.766;2024-03-02T13:20:54;13.00;99.90
21261;DHT22;10788;47.930;9.766;2024-03-02T13:23:21;13.00;99.90
21261;DHT22;10788;47.930;9.766;2024-03-02T13:25:47;12.90;99.90
21261;DHT22;10788;47.930;9.766;2024-03-02T13:28:13;12.90;99.90
21261;DHT22;10788;47.930;9.766;2024-03-02T13:30:39;12.80;99.90
21261;DHT22;10788;47.930;9.766;2024-03-02T13:33:04;13.00;99.90
21261;DHT22;10788;47.930;9.766;2024-03-02T13:35:30;13.00;99.90
21261;DHT22;10788;47.930;9.766;2024-03-02T13:37:56;13.00;99.90
21261;DHT22;10788;47.930;9.766;2024-03-02T13:40:24;12.90;99.90
21261;DHT22;10788;47.930;9.766;2024-03-02T13:42:50;12.90;99.90
21261;DHT22;10788;47.930;9.766;2024-03-02T13:45:17;12.90;99.90
21261;DHT22;10788;47.930;9.766;2024-03-02T13:47:43;13.00;99.90
21261;DHT22;10788;47.930;9.766;2024-03-02T13:50:09;12.80;99.90
21261;DHT22;10788;47.930;9.766;2024-03-02T13:52:35;12.90;99.90
21261;DHT22;10788;47.930;9.766;2024-03-02T13:55:01;13.00;99.90
21261;DHT22;10788;47.930;9.766;2024-03-02T13:57:27;13.00;99.90
21261;DHT22;10788;47.930;9.766;2024-03-02T13:59:53;13.00;99.90
21261;DHT22;10788;47.930;9.766;2024-03-02T14:02:20;12.90;99.90
21261;DHT22;10788;47.930;9.766;2024-03-02T14:04:46;12.80;99.90
21261;DHT22;10788;47.930;9.766;2024-03-02T14:07:13;12.80;99.90
21261;DHT22;10788;47.930;9.766;2024-03-02T14:09:39;12.70;99.90
21261;DHT22;10788;47.930;9.766;2024-03-02T14:12:05;12.70;99.90
21261;DHT22;10788;47.930;9.766;2024-03-02T14:14:31;12.70;99.90
21261;DHT22;10788;47.930;9.766;2024-03-02T14:16:57;12.70;99.90
21261;DHT22;10788;47.930;9.766;2024-03-02T14:19:29;12.70;99.90
21261;DHT22;10788;47.930;9.766;2024-03-02T14:21:54;12.80;99.90
21261;DHT22;10788;47.930;9.766;2024-03-02T14:24:21;12.80;99.90
21261;DHT22;10788;47.930;9.766;2024-03-02T14:26:54;12.90;99.90
21261;DHT22;10788;47.930;9.766;2024-03-02T14:29:20;12.80;99.90
21261;DHT22;10788;47.930;9.766;2024-03-02T14:31:45;12.80;99.90
21261;DHT22;10788;47.930;9.766;2024-03-02T14:34:14;12.80;99.90
21261;DHT22;10788;47.930;9.766;2024-03-02T14:36:40;12.80;99.90
21261;DHT22;10788;47.930;9.766;2024-03-02T14:39:09;12.80;99.90
21261;DHT22;10788;47.930;9.766;2024-03-02T14:41:36;12.80;99.90
21261;DHT22;10788;47.930;9.766;2024-03-02T14:44:01;12.90;99.90
21261;DHT22;10788;47.930;9.766;2024-03-02T14:46:27;12.80;99.90
21261;DHT22;10788;47.930;9.766;2024-03-02T14:48:53;12.70;99.90
21261;DHT22;10788;47.930;9.766;2024-03-02T14:51:19;12.70;99.90
21261;DHT22;10788;47.930;9.766;2024-03-02T14:53:45;12.70;99.90
21261;DHT22;10788;47.930;9.766;2024-03-02T14:56:10;12.70;99.90
21261;DHT22;10788;47.930;9.766;2024-03-02T14:58:38;12.80;99.90
21261;DHT22;10788;47.930;9.766;2024-03-02T15:01:04;12.80;99.90
21261;DHT22;10788;47.930;9.766;2024-03-02T15:03:34;12.90;99.90
21261;DHT22;10788;47.930;9.766;2024-03-02T15:06:01;13.00;99.90
21261;DHT22;10788;47.930;9.766;2024-03-02T15:08:26;13.00;99.90
21261;DHT22;10788;47.930;9.766;2024-03-02T15:10:53;12.90;99.90
21261;DHT22;10788;47.930;9.766;2024-03-02T15:13:21;12.90;99.90
21261;DHT22;10788;47.930;9.766;2024-03-02T15:15:47;12.80;99.90
21261;DHT22;10788;47.930;9.766;2024-03-02T15:18:13;12.80;99.90
21261;DHT22;10788;47.930;9.766;2024-03-02T15:20:38;12.80;99.90
21261;DHT22;10788;47.930;9.766;2024-03-02T15:23:05;12.80;99.90
21261;DHT22;10788;47.930;9.766;2024-03-02T15:25:31;12.70;99.90
21261;DHT22;10788;47.930;9.766;2024-03-02T15:27:57;12.70;99.90
21261;DHT22;10788;47.930;9.766;2024-03-02T15:30:22;12.60;99.90
21261;DHT22;10788;47.930;9.766;2024-03-02T15:32:48;12.50;99.90
21261;DHT22;10788;47.930;9.766;2024-03-02T15:35:14;12.50;99.90
21261;DHT22;10788;47.930;9.766;2024-03-02T15:37:39;12.40;99.90
21261;DHT22;10788;47.930;9.766;2024-03-02T15:40:06;12.30;99.90
21261;DHT22;10788;47.930;9.766;2024-03-02T15:42:34;12.30;99.90
21261;DHT22;10788;47.930;9.766;2024-03-02T15:45:00;12.10;99.90
21261;DHT22;10788;47.930;9.766;2024-03-02T15:47:26;12.00;99.90
21261;DHT22;10788;47.930;9.766;2024-03-02T15:49:52;12.00;99.90
21261;DHT22;10788;47.930;9.766;2024-03-02T15:52:17;12.00;99.90